sensor_id;sensor_type;location;lat;lon;timestamp;pressure;altitude;pressure_sealevel;temperature;humidity
11710;BME280;5911;51.036;6.972;2023-08-31T00:02:21;100058.00;;;15.85;100.00
11710;BME280;5911;51.036;6.972;2023-08-31T00:04:51;100051.16;;;15.91;100.00
11710;BME280;5911;51.036;6.972;2023-08-31T00:07:19;100042.16;;;15.92;100.00
11710;BME280;5911;51.036;6.972;2023-08-31T00:09:48;100055.31;;;15.93;100.00
11710;BME280;5911;51.036;6.972;2023-08-31T00:12:16;100051.03;;;15.84;100.00
11710;BME280;5911;51.036;6.972;2023-08-31T00:14:43;100055.53;;;15.83;100.00
11710;BME280;5911;51.036;6.972;2023-08-31T00:17:11;100051.88;;;15.85;100.00
11710;BME280;5911;51.036;6.972;2023-08-31T00:19:39;100044.22;;;15.81;100.00
11710;BME280;5911;51.036;6.972;2023-08-31T00:22:10;100035.25;;;15.74;100.00
11710;BME280;5911;51.036;6.972;2023-08-31T00:24:38;100039.25;;;15.78;100.00
11710;BME280;5911;51.036;6.972;2023-08-31T00:27:07;100038.25;;;15.79;100.00
11710;BME280;5911;51.036;6.972;2023-08-31T00:29:36;100041.06;;;15.86;100.00
11710;BME280;5911;51.036;6.972;2023-08-31T00:32:06;100040.72;;;15.81;100.00
11710;BME280;5911;51.036;6.972;2023-08-31T00:34:34;100048.06;;;15.79;100.00
11710;BME280;5911;51.036;6.972;2023-08-31T00:37:02;100043.44;;;15.73;100.00
11710;BME280;5911;51.036;6.972;2023-08-31T00:39:30;100045.91;;;15.74;100.00
11710;BME280;5911;51.036;6.972;2023-08-31T00:42:00;100049.38;;;15.75;100.00
11710;BME280;5911;51.036;6.972;2023-08-31T00:44:29;100050.38;;;15.74;100.00
11710;BME280;5911;51.036;6.972;2023-08-31T00:46:57;100047.56;;;15.75;100.00
11710;BME280;5911;51.036;6.972;2023-08-31T00:49:27;100046.41;;;15.78;100.00
11710;BME280;5911;51.036;6.972;2023-08-31T00:51:55;100041.78;;;15.72;100.00
11710;BME280;5911;51.036;6.972;2023-08-31T00:54:23;100052.38;;;15.80;100.00
11710;BME280;5911;51.036;6.972;2023-08-31T00:56:52;100065.19;;;15.76;100.00
11710;BME280;5911;51.036;6.972;2023-08-31T00:59:20;100052.53;;;15.78;100.00
11710;BME280;5911;51.036;6.972;2023-08-31T01:01:51;100054.06;;;15.73;100.00
11710;BME280;5911;51.036;6.972;2023-08-31T01:04:31;100058.69;;;15.79;100.00
11710;BME280;5911;51.036;6.972;2023-08-31T01:07:09;100057.38;;;15.75;100.00
11710;BME280;5911;51.036;6.972;2023-08-31T01:09:43;100058.69;;;15.79;100.00
11710;BME280;5911;51.036;6.972;2023-08-31T01:12:18;100056.69;;;15.81;100.00
11710;BME280;5911;51.036;6.972;2023-08-31T01:14:59;100054.03;;;15.81;100.00
11710;BME280;5911;51.036;6.972;2023-08-31T01:17:32;100063.19;;;15.78;100.00
11710;BME280;5911;51.036;6.972;2023-08-31T01:20:04;100060.03;;;15.75;100.00
11710;BME280;5911;51.036;6.972;2023-08-31T01:22:38;100057.03;;;15.78;100.00
11710;BME280;5911;51.036;6.972;2023-08-31T01:25:09;100057.84;;;15.78;100.00
11710;BME280;5911;51.036;6.972;2023-08-31T01:27:37;100057.56;;;15.73;100.00
11710;BME280;5911;51.036;6.972;2023-08-31T01:30:06;100051.75;;;15.70;100.00
11710;BME280;5911;51.036;6.972;2023-08-31T01:32:34;100056.06;;;15.71;100.00
11710;BME280;5911;51.036;6.972;2023-08-31T01:35:05;100052.75;;;15.69;100.00
11710;BME280;5911;51.036;6.972;2023-08-31T01:37:41;100062.06;;;15.65;100.00
11710;BME280;5911;51.036;6.972;2023-08-31T01:40:14;100059.25;;;15.66;100.00
11710;BME280;5911;51.036;6.972;2023-08-31T01:42:46;100065.06;;;15.62;100.00
11710;BME280;5911;51.036;6.972;2023-08-31T01:45:17;100066.22;;;15.59;100.00
11710;BME280;5911;51.036;6.972;2023-08-31T01:47:48;100066.44;;;15.58;100.00
11710;BME280;5911;51.036;6.972;2023-08-31T01:50:17;100067.44;;;15.57;100.00
11710;BME280;5911;51.036;6.972;2023-08-31T01:52:45;100073.56;;;15.57;100.00
11710;BME280;5911;51.036;6.972;2023-08-31T01:55:14;100066.25;;;15.51;100.00
11710;BME280;5911;51.036;6.972;2023-08-31T01:57:42;100069.06;;;15.49;100.00
11710;BME280;5911;51.036;6.972;2023-08-31T02:00:19;100061.13;;;15.41;100.00
11710;BME280;5911;51.036;6.972;2023-08-31T02:02:47;100063.59;;;15.43;100.00
11710;BME280;5911;51.036;6.972;2023-08-31T02:05:15;100064.78;;;15.40;100.00
11710;BME280;5911;51.036;6.972;2023-08-31T02:07:42;100067.56;;;15.47;100.00
11710;BME280;5911;51.036;6.972;2023-08-31T02:10:10;100071.06;;;15.47;100.00
11710;BME280;5911;51.036;6.972;2023-08-31T02:12:39;100072.06;;;15.55;100.00
11710;BME280;5911;51.036;6.972;2023-08-31T02:15:07;100079.19;;;15.46;100.00
11710;BME280;5911;51.036;6.972;2023-08-31T02:17:36;100075.38;;;15.48;100.00
11710;BME280;5911;51.036;6.972;2023-08-31T02:20:05;100078.19;;;15.47;100.00
11710;BME280;5911;51.036;6.972;2023-08-31T02:22:34;100072.22;;;15.45;100.00
11710;BME280;5911;51.036;6.972;2023-08-31T02:25:05;100081.06;;;15.37;100.00
11710;BME280;5911;51.036;6.972;2023-08-31T02:27:33;100080.72;;;15.40;100.00
11710;BME280;5911;51.036;6.972;2023-08-31T02:30:02;100083.03;;;15.43;100.00
11710;BME280;5911;51.036;6.972;2023-08-31T02:32:32;100082.88;;;15.37;100.00
11710;BME280;5911;51.036;6.972;2023-08-31T02:35:00;100085.69;;;15.43;100.00
11710;BME280;5911;51.036;6.972;2023-08-31T02:37:28;100084.22;;;15.41;100.00
11710;BME280;5911;51.036;6.972;2023-08-31T02:39:55;100084.38;;;15.39;100.00
11710;BME280;5911;51.036;6.972;2023-08-31T02:42:23;100089.69;;;15.39;100.00
11710;BME280;5911;51.036;6.972;2023-08-31T02:44:52;100082.72;;;15.38;100.00
11710;BME280;5911;51.036;6.972;2023-08-31T02:47:20;100086.72;;;15.34;100.00
11710;BME280;5911;51.036;6.972;2023-08-31T02:49:48;100084.06;;;15.34;100.00
11710;BME280;5911;51.036;6.972;2023-08-31T02:52:16;100081.38;;;15.34;100.00
11710;BME280;5911;51.036;6.972;2023-08-31T02:54:44;100078.91;;;15.33;100.00
11710;BME280;5911;51.036;6.972;2023-08-31T02:57:12;100078.75;;;15.26;100.00
11710;BME280;5911;51.036;6.972;2023-08-31T02:59:41;100085.75;;;15.27;100.00
11710;BME280;5911;51.036;6.972;2023-08-31T03:02:09;100085.75;;;15.27;100.00
11710;BME280;5911;51.036;6.972;2023-08-31T03:04:38;100086.22;;;15.23;100.00
11710;BME280;5911;51.036;6.972;2023-08-31T03:07:07;100088.72;;;15.16;100.00
11710;BME280;5911;51.036;6.972;2023-08-31T03:09:33;100085.06;;;15.17;100.00
11710;BME280;5911;51.036;6.972;2023-08-31T03:12:01;100082.25;;;15.19;100.00
11710;BME280;5911;51.036;6.972;2023-08-31T03:14:28;100086.22;;;15.14;100.00
11710;BME280;5911;51.036;6.972;2023-08-31T03:16:56;100083.72;;;15.13;100.00
11710;BME280;5911;51.036;6.972;2023-08-31T03:19:23;100079.25;;;15.13;100.00
11710;BME280;5911;51.036;6.972;2023-08-31T03:21:52;100081.41;;;15.18;100.00
11710;BME280;5911;51.036;6.972;2023-08-31T03:24:20;100085.41;;;15.14;100.00
11710;BME280;5911;51.036;6.972;2023-08-31T03:26:49;100087.72;;;15.17;100.00
11710;BME280;5911;51.036;6.972;2023-08-31T03:29:18;100086.91;;;15.25;100.00
11710;BME280;5911;51.036;6.972;2023-08-31T03:31:47;100084.06;;;15.26;100.00
11710;BME280;5911;51.036;6.972;2023-08-31T03:34:16;100089.69;;;15.31;100.00
11710;BME280;5911;51.036;6.972;2023-08-31T03:36:44;100088.19;;;15.29;100.00
11710;BME280;5911;51.036;6.972;2023-08-31T03:39:13;100089.88;;;15.30;100.00
11710;BME280;5911;51.036;6.972;2023-08-31T03:41:41;100085.72;;;15.35;100.00
11710;BME280;5911;51.036;6.972;2023-08-31T03:44:09;100094.19;;;15.31;100.00
11710;BME280;5911;51.036;6.972;2023-08-31T03:46:36;100091.34;;;15.32;100.00
11710;BME280;5911;51.036;6.972;2023-08-31T03:49:04;100092.69;;;15.36;100.00
11710;BME280;5911;51.036;6.972;2023-08-31T03:51:32;100093.34;;;15.38;100.00
11710;BME280;5911;51.036;6.972;2023-08-31T03:54:00;100089.16;;;15.44;100.00
11710;BME280;5911;51.036;6.972;2023-08-31T03:56:30;100092.31;;;15.47;100.00
11710;BME280;5911;51.036;6.972;2023-08-31T03:59:01;100095.47;;;15.43;100.00
11710;BME280;5911;51.036;6.972;2023-08-31T04:01:30;100098.81;;;15.45;100.00
11710;BME280;5911;51.036;6.972;2023-08-31T04:03:58;100099.31;;;15.48;100.00
11710;BME280;5911;51.036;6.972;2023-08-31T04:06:25;100097.31;;;15.51;100.00
11710;BME280;5911;51.036;6.972;2023-08-31T04:08:55;100091.66;;;15.54;100.00
11710;BME280;5911;51.036;6.972;2023-08-31T04:11:22;100099.97;;;15.59;100.00
11710;BME280;5911;51.036;6.972;2023-08-31T04:13:51;100100.16;;;15.57;100.00
11710;BME280;5911;51.036;6.972;2023-08-31T04:16:19;100095.97;;;15.46;100.00
11710;BME280;5911;51.036;6.972;2023-08-31T04:18:47;100096.66;;;15.48;100.00
11710;BME280;5911;51.036;6.972;2023-08-31T04:21:17;100099.97;;;15.51;100.00
11710;BME280;5911;51.036;6.972;2023-08-31T04:23:45;100105.66;;;15.56;100.00
11710;BME280;5911;51.036;6.972;2023-08-31T04:26:13;100100.63;;;15.53;100.00
11710;BME280;5911;51.036;6.972;2023-08-31T04:28:41;100106.78;;;15.53;100.00
11710;BME280;5911;51.036;6.972;2023-08-31T04:31:10;100105.28;;;15.59;100.00
11710;BME280;5911;51.036;6.972;2023-08-31T04:33:38;100115.13;;;15.58;100.00
11710;BME280;5911;51.036;6.972;2023-08-31T04:36:06;100123.25;;;15.57;100.00
11710;BME280;5911;51.036;6.972;2023-08-31T04:38:34;100115.28;;;15.57;100.00
11710;BME280;5911;51.036;6.972;2023-08-31T04:41:02;100125.06;;;15.64;100.00
11710;BME280;5911;51.036;6.972;2023-08-31T04:43:30;100129.88;;;15.61;100.00
11710;BME280;5911;51.036;6.972;2023-08-31T04:45:57;100129.72;;;15.62;100.00
11710;BME280;5911;51.036;6.972;2023-08-31T04:48:26;100128.03;;;15.61;100.00
11710;BME280;5911;51.036;6.972;2023-08-31T04:50:56;100120.06;;;15.53;100.00
11710;BME280;5911;51.036;6.972;2023-08-31T04:53:24;100135.19;;;15.53;100.00
11710;BME280;5911;51.036;6.972;2023-08-31T04:55:51;100124.56;;;15.53;100.00
11710;BME280;5911;51.036;6.972;2023-08-31T04:58:19;100127.75;;;15.56;100.00
11710;BME280;5911;51.036;6.972;2023-08-31T05:00:47;100131.88;;;15.59;100.00
11710;BME280;5911;51.036;6.972;2023-08-31T05:03:14;100130.88;;;15.52;100.00
11710;BME280;5911;51.036;6.972;2023-08-31T05:05:44;100136.84;;;15.54;100.00
11710;BME280;5911;51.036;6.972;2023-08-31T05:08:11;100142.84;;;15.47;100.00
11710;BME280;5911;51.036;6.972;2023-08-31T05:10:39;100142.69;;;15.41;100.00
11710;BME280;5911;51.036;6.972;2023-08-31T05:13:07;100145.50;;;15.47;100.00
11710;BME280;5911;51.036;6.972;2023-08-31T05:15:35;100149.47;;;15.43;100.00
11710;BME280;5911;51.036;6.972;2023-08-31T05:18:03;100151.81;;;15.46;100.00
11710;BME280;5911;51.036;6.972;2023-08-31T05:20:31;100160.28;;;15.50;100.00
11710;BME280;5911;51.036;6.972;2023-08-31T05:23:00;100161.44;;;15.47;100.00
11710;BME280;5911;51.036;6.972;2023-08-31T05:25:27;100167.09;;;15.44;100.00
11710;BME280;5911;51.036;6.972;2023-08-31T05:27:55;100174.44;;;15.42;100.00
11710;BME280;5911;51.036;6.972;2023-08-31T05:30:23;100174.06;;;15.45;100.00
11710;BME280;5911;51.036;6.972;2023-08-31T05:32:51;100173.59;;;15.42;100.00
11710;BME280;5911;51.036;6.972;2023-08-31T05:35:18;100173.75;;;15.40;100.00
11710;BME280;5911;51.036;6.972;2023-08-31T05:37:46;100174.75;;;15.39;100.00
11710;BME280;5911;51.036;6.972;2023-08-31T05:40:15;100189.03;;;15.38;100.00
11710;BME280;5911;51.036;6.972;2023-08-31T05:42:43;100187.88;;;15.41;100.00
11710;BME280;5911;51.036;6.972;2023-08-31T05:45:11;100181.22;;;15.37;100.00
11710;BME280;5911;51.036;6.972;2023-08-31T05:47:40;100189.34;;;15.43;100.00
11710;BME280;5911;51.036;6.972;2023-08-31T05:50:09;100186.69;;;15.43;100.00
11710;BME280;5911;51.036;6.972;2023-08-31T05:52:36;100191.84;;;15.45;100.00
11710;BME280;5911;51.036;6.972;2023-08-31T05:55:05;100197.00;;;15.46;100.00
11710;BME280;5911;51.036;6.972;2023-08-31T05:57:34;100200.66;;;15.45;100.00
11710;BME280;5911;51.036;6.972;2023-08-31T06:00:02;100200.19;;;15.42;100.00
11710;BME280;5911;51.036;6.972;2023-08-31T06:02:38;100194.03;;;15.41;100.00
11710;BME280;5911;51.036;6.972;2023-08-31T06:05:06;100194.50;;;15.45;100.00
11710;BME280;5911;51.036;6.972;2023-08-31T06:07:34;100202.31;;;15.46;100.00
11710;BME280;5911;51.036;6.972;2023-08-31T06:10:02;100204.97;;;15.38;100.00
11710;BME280;5911;51.036;6.972;2023-08-31T06:12:30;100200.16;;;15.34;100.00
11710;BME280;5911;51.036;6.972;2023-08-31T06:14:59;100201.16;;;15.33;100.00
11710;BME280;5911;51.036;6.972;2023-08-31T06:17:27;100209.97;;;15.41;100.00
11710;BME280;5911;51.036;6.972;2023-08-31T06:19:54;100210.31;;;15.38;100.00
11710;BME280;5911;51.036;6.972;2023-08-31T06:22:22;100208.16;;;15.42;100.00
11710;BME280;5911;51.036;6.972;2023-08-31T06:24:50;100216.59;;;15.45;100.00
11710;BME280;5911;51.036;6.972;2023-08-31T06:27:19;100216.59;;;15.45;100.00
11710;BME280;5911;51.036;6.972;2023-08-31T06:29:46;100219.09;;;15.47;100.00
11710;BME280;5911;51.036;6.972;2023-08-31T06:32:15;100226.91;;;15.48;100.00
11710;BME280;5911;51.036;6.972;2023-08-31T06:34:43;100220.25;;;15.44;100.00
11710;BME280;5911;51.036;6.972;2023-08-31T06:37:11;100226.25;;;15.55;100.00
11710;BME280;5911;51.036;6.972;2023-08-31T06:39:39;100230.25;;;15.59;100.00
11710;BME280;5911;51.036;6.972;2023-08-31T06:42:07;100225.91;;;15.49;100.00
11710;BME280;5911;51.036;6.972;2023-08-31T06:44:37;100218.44;;;15.53;100.00
11710;BME280;5911;51.036;6.972;2023-08-31T06:47:05;100219.25;;;15.54;100.00
11710;BME280;5911;51.036;6.972;2023-08-31T06:49:34;100221.78;;;15.63;100.00
11710;BME280;5911;51.036;6.972;2023-08-31T06:52:02;100226.94;;;15.57;100.00
11710;BME280;5911;51.036;6.972;2023-08-31T06:54:54;100219.59;;;15.51;100.00
11710;BME280;5911;51.036;6.972;2023-08-31T06:57:23;100226.44;;;15.69;100.00
11710;BME280;5911;51.036;6.972;2023-08-31T06:59:50;100224.28;;;15.65;100.00
11710;BME280;5911;51.036;6.972;2023-08-31T07:02:19;100229.59;;;15.65;100.00
11710;BME280;5911;51.036;6.972;2023-08-31T07:04:50;100230.91;;;15.69;100.00
11710;BME280;5911;51.036;6.972;2023-08-31T07:07:19;100219.28;;;15.70;100.00
11710;BME280;5911;51.036;6.972;2023-08-31T07:09:47;100231.22;;;15.74;100.00
11710;BME280;5911;51.036;6.972;2023-08-31T07:12:15;100231.56;;;15.79;100.00
11710;BME280;5911;51.036;6.972;2023-08-31T07:14:42;100234.22;;;15.79;100.00
11710;BME280;5911;51.036;6.972;2023-08-31T07:17:10;100242.88;;;15.81;100.00
11710;BME280;5911;51.036;6.972;2023-08-31T07:19:38;100230.22;;;15.75;100.00
11710;BME280;5911;51.036;6.972;2023-08-31T07:22:07;100241.22;;;15.80;100.00
11710;BME280;5911;51.036;6.972;2023-08-31T07:24:35;100245.69;;;15.79;100.00
11710;BME280;5911;51.036;6.972;2023-08-31T07:27:04;100241.22;;;15.80;100.00
11710;BME280;5911;51.036;6.972;2023-08-31T07:29:32;100247.19;;;15.82;100.00
11710;BME280;5911;51.036;6.972;2023-08-31T07:31:59;100254.31;;;15.98;100.00
11710;BME280;5911;51.036;6.972;2023-08-31T07:34:27;100249.81;;;16.06;100.00
11710;BME280;5911;51.036;6.972;2023-08-31T07:36:55;100254.81;;;16.01;100.00
11710;BME280;5911;51.036;6.972;2023-08-31T07:39:24;100257.66;;;16.00;100.00
11710;BME280;5911;51.036;6.972;2023-08-31T07:41:53;100268.44;;;15.90;100.00
11710;BME280;5911;51.036;6.972;2023-08-31T07:44:23;100264.81;;;15.83;100.00
11710;BME280;5911;51.036;6.972;2023-08-31T07:46:51;100268.97;;;15.86;100.00
11710;BME280;5911;51.036;6.972;2023-08-31T07:49:18;100262.81;;;15.85;100.00
11710;BME280;5911;51.036;6.972;2023-08-31T07:51:46;100277.13;;;15.84;100.00
11710;BME280;5911;51.036;6.972;2023-08-31T07:54:19;100263.50;;;15.87;100.00
11710;BME280;5911;51.036;6.972;2023-08-31T07:56:48;100277.09;;;15.92;100.00
11710;BME280;5911;51.036;6.972;2023-08-31T07:59:16;100273.63;;;16.00;100.00
11710;BME280;5911;51.036;6.972;2023-08-31T08:01:44;100283.09;;;16.02;100.00
11710;BME280;5911;51.036;6.972;2023-08-31T08:04:12;100268.59;;;16.05;100.00
11710;BME280;5911;51.036;6.972;2023-08-31T08:06:40;100278.25;;;16.14;100.00
11710;BME280;5911;51.036;6.972;2023-08-31T08:09:08;100271.22;;;16.21;100.00
11710;BME280;5911;51.036;6.972;2023-08-31T08:11:36;100276.38;;;16.31;100.00
11710;BME280;5911;51.036;6.972;2023-08-31T08:14:05;100278.88;;;16.32;100.00
11710;BME280;5911;51.036;6.972;2023-08-31T08:16:33;100283.31;;;16.40;100.00
11710;BME280;5911;51.036;6.972;2023-08-31T08:19:02;100283.78;;;16.51;100.00
11710;BME280;5911;51.036;6.972;2023-08-31T08:21:30;100281.78;;;16.53;100.00
11710;BME280;5911;51.036;6.972;2023-08-31T08:23:57;100287.25;;;16.60;100.00
11710;BME280;5911;51.036;6.972;2023-08-31T08:26:25;100296.91;;;16.69;100.00
11710;BME280;5911;51.036;6.972;2023-08-31T08:28:52;100288.06;;;16.77;100.00
11710;BME280;5911;51.036;6.972;2023-08-31T08:31:21;100297.84;;;16.84;100.00
11710;BME280;5911;51.036;6.972;2023-08-31T08:33:51;100301.34;;;16.85;100.00
11710;BME280;5911;51.036;6.972;2023-08-31T08:36:19;100299.31;;;16.87;100.00
11710;BME280;5911;51.036;6.972;2023-08-31T08:38:46;100295.84;;;16.86;100.00
11710;BME280;5911;51.036;6.972;2023-08-31T08:41:14;100296.50;;;16.88;100.00
11710;BME280;5911;51.036;6.972;2023-08-31T08:43:46;100297.19;;;16.82;100.00
11710;BME280;5911;51.036;6.972;2023-08-31T08:46:14;100299.19;;;16.80;100.00
11710;BME280;5911;51.036;6.972;2023-08-31T08:48:44;100305.88;;;16.76;100.00
11710;BME280;5911;51.036;6.972;2023-08-31T08:51:14;100295.88;;;16.78;100.00
11710;BME280;5911;51.036;6.972;2023-08-31T08:53:43;100298.19;;;16.81;100.00
11710;BME280;5911;51.036;6.972;2023-08-31T08:56:10;100301.84;;;16.80;100.00
11710;BME280;5911;51.036;6.972;2023-08-31T08:58:38;100296.84;;;16.85;100.00
11710;BME280;5911;51.036;6.972;2023-08-31T09:01:07;100300.84;;;16.81;100.00
11710;BME280;5911;51.036;6.972;2023-08-31T09:03:35;100306.50;;;16.86;100.00
11710;BME280;5911;51.036;6.972;2023-08-31T09:06:04;100304.16;;;16.83;100.00
11710;BME280;5911;51.036;6.972;2023-08-31T09:08:34;100312.13;;;16.92;100.00
11710;BME280;5911;51.036;6.972;2023-08-31T09:11:03;100312.13;;;16.92;100.00
11710;BME280;5911;51.036;6.972;2023-08-31T09:13:32;100306.16;;;16.90;100.00
11710;BME280;5911;51.036;6.972;2023-08-31T09:16:00;100308.13;;;16.96;100.00
11710;BME280;5911;51.036;6.972;2023-08-31T09:18:29;100307.75;;;16.99;100.00
11710;BME280;5911;51.036;6.972;2023-08-31T09:21:00;100304.75;;;17.02;100.00
11710;BME280;5911;51.036;6.972;2023-08-31T09:23:29;100309.09;;;17.03;100.00
11710;BME280;5911;51.036;6.972;2023-08-31T09:25:57;100307.06;;;17.05;100.00
11710;BME280;5911;51.036;6.972;2023-08-31T09:28:26;100309.69;;;17.13;100.00
11710;BME280;5911;51.036;6.972;2023-08-31T09:31:04;100317.50;;;17.14;100.00
11710;BME280;5911;51.036;6.972;2023-08-31T09:33:34;100321.19;;;17.13;100.00
11710;BME280;5911;51.036;6.972;2023-08-31T09:36:02;100320.34;;;17.13;100.00
11710;BME280;5911;51.036;6.972;2023-08-31T09:38:31;100317.50;;;17.14;100.00
11710;BME280;5911;51.036;6.972;2023-08-31T09:41:03;100322.97;;;17.21;100.00
11710;BME280;5911;51.036;6.972;2023-08-31T09:43:32;100318.13;;;17.25;100.00
11710;BME280;5911;51.036;6.972;2023-08-31T09:46:00;100317.97;;;17.26;100.00
11710;BME280;5911;51.036;6.972;2023-08-31T09:48:29;100324.41;;;17.32;100.00
11710;BME280;5911;51.036;6.972;2023-08-31T09:50:57;100322.88;;;17.37;100.00
11710;BME280;5911;51.036;6.972;2023-08-31T09:53:29;100329.53;;;17.41;100.00
11710;BME280;5911;51.036;6.972;2023-08-31T09:55:59;100325.97;;;17.49;100.00
11710;BME280;5911;51.036;6.972;2023-08-31T09:58:27;100325.31;;;17.47;100.00
11710;BME280;5911;51.036;6.972;2023-08-31T10:00:57;100323.63;;;17.54;100.00
11710;BME280;5911;51.036;6.972;2023-08-31T10:03:26;100328.72;;;17.64;100.00
11710;BME280;5911;51.036;6.972;2023-08-31T10:05:55;100326.59;;;17.82;100.00
11710;BME280;5911;51.036;6.972;2023-08-31T10:08:23;100331.59;;;17.85;100.00
11710;BME280;5911;51.036;6.972;2023-08-31T10:10:53;100333.25;;;17.86;100.00
11710;BME280;5911;51.036;6.972;2023-08-31T10:13:23;100345.94;;;17.84;100.00
11710;BME280;5911;51.036;6.972;2023-08-31T10:15:52;100329.19;;;17.90;100.00
11710;BME280;5911;51.036;6.972;2023-08-31T10:18:20;100332.16;;;17.95;100.00
11710;BME280;5911;51.036;6.972;2023-08-31T10:20:48;100346.84;;;17.91;100.00
11710;BME280;5911;51.036;6.972;2023-08-31T10:23:17;100347.94;;;17.82;100.00
11710;BME280;5911;51.036;6.972;2023-08-31T10:26:00;100344.31;;;17.75;100.00
11710;BME280;5911;51.036;6.972;2023-08-31T10:28:39;100338.53;;;17.71;100.00
11710;BME280;5911;51.036;6.972;2023-08-31T10:31:08;100345.69;;;17.71;100.00
11710;BME280;5911;51.036;6.972;2023-08-31T10:33:39;100331.97;;;17.74;100.00
11710;BME280;5911;51.036;6.972;2023-08-31T10:36:12;100335.34;;;17.90;100.00
11710;BME280;5911;51.036;6.972;2023-08-31T10:38:42;100338.16;;;17.97;100.00
11710;BME280;5911;51.036;6.972;2023-08-31T10:41:21;100337.50;;;17.95;100.00
11710;BME280;5911;51.036;6.972;2023-08-31T10:43:52;100334.13;;;18.01;100.00
11710;BME280;5911;51.036;6.972;2023-08-31T10:46:30;100333.47;;;17.99;100.00
11710;BME280;5911;51.036;6.972;2023-08-31T10:48:59;100339.72;;;18.06;100.00
11710;BME280;5911;51.036;6.972;2023-08-31T10:51:29;100347.81;;;17.98;100.00
11710;BME280;5911;51.036;6.972;2023-08-31T10:54:07;100337.13;;;17.98;100.00
11710;BME280;5911;51.036;6.972;2023-08-31T10:56:52;100340.06;;;18.03;100.00
11710;BME280;5911;51.036;6.972;2023-08-31T10:59:22;100334.22;;;18.08;100.00
11710;BME280;5911;51.036;6.972;2023-08-31T11:01:55;100332.88;;;18.56;100.00
11710;BME280;5911;51.036;6.972;2023-08-31T11:04:24;100334.75;;;19.00;100.00
11710;BME280;5911;51.036;6.972;2023-08-31T11:07:13;100330.13;;;19.08;100.00
11710;BME280;5911;51.036;6.972;2023-08-31T11:09:42;100330.59;;;18.82;100.00
11710;BME280;5911;51.036;6.972;2023-08-31T11:12:10;100327.13;;;18.67;100.00
11710;BME280;5911;51.036;6.972;2023-08-31T11:14:40;100311.88;;;18.53;100.00
11710;BME280;5911;51.036;6.972;2023-08-31T11:17:08;100321.56;;;18.54;100.00
11710;BME280;5911;51.036;6.972;2023-08-31T11:19:37;100313.47;;;18.47;100.00
11710;BME280;5911;51.036;6.972;2023-08-31T11:22:05;100320.63;;;19.06;100.00
11710;BME280;5911;51.036;6.972;2023-08-31T11:24:36;100303.97;;;19.25;100.00
11710;BME280;5911;51.036;6.972;2023-08-31T11:27:07;100318.28;;;19.75;100.00
11710;BME280;5911;51.036;6.972;2023-08-31T11:29:37;100318.69;;;19.50;100.00
11710;BME280;5911;51.036;6.972;2023-08-31T11:32:06;100304.56;;;19.42;100.00
11710;BME280;5911;51.036;6.972;2023-08-31T11:34:34;100316.63;;;19.95;100.00
11710;BME280;5911;51.036;6.972;2023-08-31T11:37:03;100317.94;;;20.33;100.00
11710;BME280;5911;51.036;6.972;2023-08-31T11:39:30;100314.22;;;20.56;100.00
11710;BME280;5911;51.036;6.972;2023-08-31T11:41:58;100311.66;;;20.76;99.53
11710;BME280;5911;51.036;6.972;2023-08-31T11:44:26;100309.84;;;20.89;98.95
11710;BME280;5911;51.036;6.972;2023-08-31T11:46:54;100315.09;;;20.69;92.01
11710;BME280;5911;51.036;6.972;2023-08-31T11:49:24;100308.69;;;21.05;99.52
11710;BME280;5911;51.036;6.972;2023-08-31T11:51:54;100310.13;;;20.66;94.51
11710;BME280;5911;51.036;6.972;2023-08-31T11:54:25;100310.25;;;20.24;96.60
11710;BME280;5911;51.036;6.972;2023-08-31T11:56:53;100304.53;;;20.27;100.00
11710;BME280;5911;51.036;6.972;2023-08-31T11:59:21;100314.97;;;20.22;96.32
11710;BME280;5911;51.036;6.972;2023-08-31T12:01:50;100317.25;;;20.46;93.01
11710;BME280;5911;51.036;6.972;2023-08-31T12:04:20;100305.22;;;20.70;94.87
11710;BME280;5911;51.036;6.972;2023-08-31T12:06:51;100302.25;;;20.99;93.48
11710;BME280;5911;51.036;6.972;2023-08-31T12:09:20;100303.72;;;21.08;98.44
11710;BME280;5911;51.036;6.972;2023-08-31T12:11:51;100301.16;;;21.35;98.57
11710;BME280;5911;51.036;6.972;2023-08-31T12:14:21;100314.00;;;21.59;96.06
11710;BME280;5911;51.036;6.972;2023-08-31T12:16:49;100309.66;;;21.58;89.50
11710;BME280;5911;51.036;6.972;2023-08-31T12:19:18;100318.72;;;21.44;87.93
11710;BME280;5911;51.036;6.972;2023-08-31T12:21:46;100314.56;;;21.35;85.70
11710;BME280;5911;51.036;6.972;2023-08-31T12:24:15;100320.59;;;21.70;86.99
11710;BME280;5911;51.036;6.972;2023-08-31T12:26:43;100329.94;;;21.94;86.49
11710;BME280;5911;51.036;6.972;2023-08-31T12:29:11;100350.63;;;22.00;83.29
11710;BME280;5911;51.036;6.972;2023-08-31T12:31:39;100331.16;;;21.85;80.91
11710;BME280;5911;51.036;6.972;2023-08-31T12:34:07;100331.47;;;21.29;80.80
11710;BME280;5911;51.036;6.972;2023-08-31T12:36:35;100326.00;;;20.61;84.39
11710;BME280;5911;51.036;6.972;2023-08-31T12:39:03;100323.06;;;20.28;88.51
11710;BME280;5911;51.036;6.972;2023-08-31T12:41:34;100319.28;;;20.16;93.88
11710;BME280;5911;51.036;6.972;2023-08-31T12:44:02;100327.84;;;20.05;97.54
11710;BME280;5911;51.036;6.972;2023-08-31T12:46:31;100323.91;;;19.80;98.13
11710;BME280;5911;51.036;6.972;2023-08-31T12:48:59;100315.63;;;19.75;100.00
11710;BME280;5911;51.036;6.972;2023-08-31T12:51:28;100309.03;;;19.71;99.60
11710;BME280;5911;51.036;6.972;2023-08-31T12:53:56;100314.75;;;19.67;97.79
11710;BME280;5911;51.036;6.972;2023-08-31T12:56:24;100320.16;;;19.74;94.79
11710;BME280;5911;51.036;6.972;2023-08-31T12:58:53;100312.72;;;20.47;89.59
11710;BME280;5911;51.036;6.972;2023-08-31T13:01:23;100314.53;;;20.18;87.16